createdAt,value
2018-05-17T00:01:51.842Z,88.10
2018-05-17T00:04:20.233Z,88.70
2018-05-17T00:06:48.630Z,88.50
2018-05-17T00:09:16.245Z,88.40
2018-05-17T00:11:43.896Z,88.40
2018-05-17T00:14:11.557Z,87.80
2018-05-17T00:16:39.189Z,87.50
2018-05-17T00:19:06.800Z,87.80
2018-05-17T00:21:35.200Z,87.60
2018-05-17T00:24:02.872Z,87.50
2018-05-17T00:26:30.520Z,88.00
2018-05-17T00:28:58.140Z,88.20
2018-05-17T00:31:25.755Z,88.70
2018-05-17T00:33:53.369Z,89.10
2018-05-17T00:36:21.010Z,89.60
2018-05-17T00:38:48.611Z,90.00
2018-05-17T00:41:17.028Z,90.10
2018-05-17T00:43:44.670Z,90.10
2018-05-17T00:46:12.290Z,90.00
2018-05-17T00:48:39.928Z,90.00
2018-05-17T00:51:07.521Z,90.00
2018-05-17T00:53:35.875Z,89.40
2018-05-17T00:56:03.500Z,89.40
2018-05-17T00:58:31.143Z,89.40
2018-05-17T01:00:58.810Z,88.70
2018-05-17T01:03:26.433Z,88.60
2018-05-17T01:05:54.050Z,88.30
2018-05-17T01:08:21.659Z,88.30
2018-05-17T01:10:50.070Z,88.50
2018-05-17T01:13:17.711Z,88.50
2018-05-17T01:15:46.117Z,89.40
2018-05-17T01:18:13.750Z,89.40
2018-05-17T01:20:42.120Z,90.00
2018-05-17T01:23:10.482Z,90.00
2018-05-17T01:25:38.168Z,90.00
2018-05-17T01:28:06.593Z,90.20
2018-05-17T01:30:34.230Z,90.20
2018-05-17T01:33:01.851Z,90.30
2018-05-17T01:35:30.264Z,90.50
2018-05-17T01:38:09.856Z,90.50
2018-05-17T01:40:37.466Z,90.30
2018-05-17T01:43:05.113Z,90.30
2018-05-17T01:45:32.740Z,90.20
2018-05-17T01:48:00.368Z,90.00
2018-05-17T01:50:27.965Z,90.00
2018-05-17T01:52:56.381Z,90.10
2018-05-17T01:55:24.025Z,90.10
2018-05-17T01:57:52.368Z,90.10
2018-05-17T02:00:20.013Z,90.10
2018-05-17T02:02:47.659Z,90.10
2018-05-17T02:05:15.267Z,90.10
2018-05-17T02:07:42.930Z,90.00
2018-05-17T02:10:10.549Z,89.90
2018-05-17T02:12:38.197Z,89.80
2018-05-17T02:15:05.817Z,90.00
2018-05-17T02:17:34.195Z,90.30
2018-05-17T02:20:02.652Z,90.40
2018-05-17T02:22:30.277Z,90.40
2018-05-17T02:24:57.900Z,90.40
2018-05-17T02:27:26.300Z,90.50
2018-05-17T02:29:53.920Z,90.50
2018-05-17T02:32:21.556Z,90.50
2018-05-17T02:34:49.169Z,90.60
2018-05-17T02:37:16.789Z,90.70
2018-05-17T02:39:44.454Z,90.80
2018-05-17T02:42:12.060Z,90.80
2018-05-17T02:44:39.688Z,90.90
2018-05-17T02:47:07.309Z,91.00
2018-05-17T02:49:34.960Z,91.10
2018-05-17T02:52:02.574Z,90.80
2018-05-17T02:54:30.942Z,90.70
2018-05-17T02:56:58.569Z,90.70
2018-05-17T02:59:26.173Z,90.90
2018-05-17T03:01:54.528Z,90.00
2018-05-17T03:04:22.155Z,89.90
2018-05-17T03:06:49.762Z,90.00
2018-05-17T03:09:17.400Z,89.70
2018-05-17T03:11:45.022Z,89.30
2018-05-17T03:14:12.658Z,89.50
2018-05-17T03:16:41.026Z,88.90
2018-05-17T03:19:09.409Z,88.50
2018-05-17T03:21:37.810Z,88.50
2018-05-17T03:24:05.420Z,88.50
2018-05-17T03:26:33.035Z,88.70
2018-05-17T03:29:00.655Z,88.70
2018-05-17T03:31:28.291Z,88.70
2018-05-17T03:33:55.995Z,89.40
2018-05-17T03:36:23.991Z,89.70
2018-05-17T03:38:51.657Z,89.80
2018-05-17T03:41:19.303Z,89.90
2018-05-17T03:43:46.930Z,89.90
2018-05-17T03:46:14.669Z,89.80
2018-05-17T03:48:42.315Z,89.10
2018-05-17T03:51:09.930Z,88.60
2018-05-17T03:53:38.351Z,87.90
2018-05-17T03:56:05.995Z,87.90
2018-05-17T03:58:33.700Z,87.70
2018-05-17T04:01:13.195Z,87.70
2018-05-17T04:03:52.611Z,87.30
2018-05-17T04:06:32.155Z,87.30
2018-05-17T04:08:59.794Z,87.80
2018-05-17T04:11:28.171Z,88.60
2018-05-17T04:13:56.639Z,88.40
2018-05-17T04:16:24.212Z,88.40
2018-05-17T04:18:52.592Z,88.50
2018-05-17T04:21:24.271Z,88.40
2018-05-17T04:23:51.907Z,88.30
2018-05-17T04:26:20.310Z,88.90
2018-05-17T04:28:47.957Z,88.80
2018-05-17T04:31:16.317Z,89.50
2018-05-17T04:33:43.960Z,89.50
2018-05-17T04:36:11.553Z,89.80
2018-05-17T04:38:39.943Z,90.00
2018-05-17T04:41:07.560Z,90.00
2018-05-17T04:43:35.182Z,90.00
2018-05-17T04:46:02.810Z,90.10
2018-05-17T04:48:31.201Z,89.80
2018-05-17T04:50:58.806Z,89.60
2018-05-17T04:53:26.432Z,90.00
2018-05-17T04:55:54.049Z,89.90
2018-05-17T04:58:21.679Z,89.90
2018-05-17T05:00:50.049Z,90.10
2018-05-17T05:03:17.669Z,90.10
2018-05-17T05:05:46.047Z,90.30
2018-05-17T05:08:14.430Z,90.00
2018-05-17T05:10:42.860Z,89.90
2018-05-17T05:13:10.490Z,89.90
2018-05-17T05:15:38.107Z,89.30
2018-05-17T05:18:05.728Z,89.40
2018-05-17T05:20:33.326Z,90.00
2018-05-17T05:23:00.991Z,90.20
2018-05-17T05:25:29.350Z,90.30
2018-05-17T05:27:56.970Z,90.30
2018-05-17T05:30:24.590Z,90.60
2018-05-17T05:32:52.973Z,90.40
2018-05-17T05:35:21.417Z,90.30
2018-05-17T05:37:49.069Z,90.30
2018-05-17T05:40:17.445Z,89.90
2018-05-17T05:42:45.100Z,89.90
2018-05-17T05:45:12.727Z,89.80
2018-05-17T05:47:40.387Z,89.30
2018-05-17T05:50:07.992Z,88.50
2018-05-17T05:52:35.611Z,89.00
2018-05-17T05:55:03.251Z,88.70
2018-05-17T05:57:31.650Z,88.50
2018-05-17T05:59:59.277Z,88.50
2018-05-17T06:02:26.969Z,88.30
2018-05-17T06:04:54.528Z,87.60
2018-05-17T06:07:22.151Z,87.00
2018-05-17T06:09:49.767Z,85.80
2018-05-17T06:12:17.406Z,87.40
2018-05-17T06:14:45.047Z,87.60
2018-05-17T06:17:13.456Z,87.80
2018-05-17T06:19:41.085Z,87.80
2018-05-17T06:22:09.480Z,86.40
2018-05-17T06:24:37.917Z,86.10
2018-05-17T06:27:05.572Z,86.00
2018-05-17T06:29:33.177Z,85.90
2018-05-17T06:32:01.526Z,86.10
2018-05-17T06:34:29.134Z,86.10
2018-05-17T06:39:26.462Z,87.00
2018-05-17T06:41:54.838Z,87.90
2018-05-17T06:44:22.466Z,87.90
2018-05-17T06:46:50.098Z,88.10
2018-05-17T06:49:17.720Z,86.60
2018-05-17T06:51:45.320Z,85.70
2018-05-17T06:54:12.931Z,86.20
2018-05-17T06:56:40.508Z,86.80
2018-05-17T06:59:08.889Z,86.50
2018-05-17T07:01:38.051Z,86.10
2018-05-17T07:04:05.641Z,86.10
2018-05-17T07:06:34.012Z,85.50
2018-05-17T07:09:01.595Z,85.50
2018-05-17T07:11:29.968Z,86.40
2018-05-17T07:13:58.369Z,83.60
2018-05-17T07:16:25.976Z,83.50
2018-05-17T07:18:53.570Z,82.90
2018-05-17T07:21:21.922Z,82.70
2018-05-17T07:23:49.551Z,82.60
2018-05-17T07:26:17.209Z,82.60
2018-05-17T07:28:44.834Z,82.50
2018-05-17T07:31:12.431Z,83.20
2018-05-17T07:33:40.066Z,83.30
2018-05-17T07:36:07.677Z,79.60
2018-05-17T07:38:35.372Z,79.50
2018-05-17T07:41:03.749Z,79.00
2018-05-17T07:43:32.130Z,81.80
2018-05-17T07:45:59.740Z,81.80
2018-05-17T07:48:27.357Z,80.10
2018-05-17T07:50:55.000Z,80.20
2018-05-17T07:53:23.380Z,77.10
2018-05-17T07:55:51.761Z,78.10
2018-05-17T07:58:19.383Z,78.00
2018-05-17T08:00:47.000Z,76.40
2018-05-17T08:03:14.661Z,78.90
2018-05-17T08:05:42.289Z,75.30
2018-05-17T08:08:10.723Z,73.40
2018-05-17T08:10:38.340Z,73.40
2018-05-17T08:13:06.721Z,73.40
2018-05-17T08:15:35.140Z,73.40
2018-05-17T08:18:02.779Z,74.00
2018-05-17T08:20:30.420Z,70.20
2018-05-17T08:22:58.837Z,68.10
2018-05-17T08:25:26.449Z,68.10
2018-05-17T08:27:54.860Z,70.30
2018-05-17T08:30:22.473Z,70.10
2018-05-17T08:32:50.092Z,68.00
2018-05-17T08:35:17.710Z,67.10
2018-05-17T08:37:46.090Z,71.50
2018-05-17T08:40:14.470Z,71.60
2018-05-17T08:42:42.909Z,71.60
2018-05-17T08:45:10.508Z,71.60
2018-05-17T08:47:38.878Z,72.60
2018-05-17T08:50:07.308Z,73.40
2018-05-17T08:52:34.991Z,73.90
2018-05-17T08:55:02.606Z,71.00
2018-05-17T08:57:30.211Z,72.00
2018-05-17T08:59:58.970Z,68.90
2018-05-17T09:02:26.570Z,69.50
2018-05-17T09:04:54.221Z,69.50
2018-05-17T09:07:21.824Z,67.00
2018-05-17T09:09:49.450Z,68.80
2018-05-17T09:12:17.050Z,70.30
2018-05-17T09:14:44.670Z,68.60
2018-05-17T09:17:12.282Z,68.00
2018-05-17T09:19:39.870Z,64.90
2018-05-17T09:22:07.471Z,65.50
2018-05-17T09:24:35.850Z,67.50
2018-05-17T09:27:04.290Z,66.40
2018-05-17T09:29:31.955Z,66.20
2018-05-17T09:31:59.589Z,67.00
2018-05-17T09:34:27.222Z,65.30
2018-05-17T09:36:54.842Z,64.90
2018-05-17T09:39:22.461Z,62.30
2018-05-17T09:41:50.074Z,61.60
2018-05-17T09:44:17.678Z,62.30
2018-05-17T09:46:45.261Z,59.50
2018-05-17T09:49:12.905Z,57.50
2018-05-17T09:51:40.517Z,59.30
2018-05-17T09:54:08.917Z,55.40
2018-05-17T09:56:36.526Z,55.30
2018-05-17T09:59:04.116Z,56.40
2018-05-17T10:01:32.488Z,52.40
2018-05-17T10:04:00.073Z,52.20
2018-05-17T10:06:27.730Z,54.00
2018-05-17T10:08:56.136Z,56.60
2018-05-17T10:11:23.755Z,56.60
2018-05-17T10:13:52.130Z,55.90
2018-05-17T10:16:20.520Z,56.30
2018-05-17T10:18:48.910Z,52.60
2018-05-17T10:21:16.545Z,52.60
2018-05-17T10:23:44.924Z,53.50
2018-05-17T10:26:13.351Z,54.80
2018-05-17T10:28:40.970Z,55.30
2018-05-17T10:31:09.350Z,55.60
2018-05-17T10:33:37.759Z,54.40
2018-05-17T10:36:05.369Z,54.40
2018-05-17T10:38:33.018Z,53.00
2018-05-17T10:41:00.660Z,53.10
2018-05-17T10:43:28.310Z,54.10
2018-05-17T10:45:55.920Z,54.70
2018-05-17T10:48:23.540Z,52.70
2018-05-17T10:50:51.154Z,53.40
2018-05-17T10:53:19.540Z,52.00
2018-05-17T10:55:47.219Z,52.00
2018-05-17T10:58:14.850Z,52.60
2018-05-17T11:00:43.254Z,53.40
2018-05-17T11:03:10.880Z,52.80
2018-05-17T11:05:39.260Z,50.00
2018-05-17T11:08:07.674Z,49.30
2018-05-17T11:10:35.340Z,49.20
2018-05-17T11:13:02.959Z,51.00
2018-05-17T11:15:31.360Z,52.80
2018-05-17T11:17:58.973Z,52.20
2018-05-17T11:20:26.640Z,52.80
2018-05-17T11:22:54.255Z,52.10
2018-05-17T11:25:21.880Z,53.30
2018-05-17T11:27:50.275Z,51.70
2018-05-17T11:30:17.886Z,51.60
2018-05-17T11:32:46.310Z,50.50
2018-05-17T11:35:14.746Z,53.60
2018-05-17T11:37:42.378Z,50.20
2018-05-17T11:40:10.085Z,52.80
2018-05-17T11:42:37.709Z,51.90
2018-05-17T11:45:05.350Z,50.20
2018-05-17T11:47:33.007Z,50.00
2018-05-17T11:50:00.638Z,48.70
2018-05-17T11:52:29.027Z,45.40
2018-05-17T11:54:57.390Z,43.20
2018-05-17T11:57:25.041Z,43.00
2018-05-17T11:59:52.660Z,43.60
2018-05-17T12:02:20.290Z,44.00
2018-05-17T12:04:49.413Z,43.60
2018-05-17T12:07:17.130Z,43.60
2018-05-17T12:09:44.729Z,42.50
2018-05-17T12:12:12.323Z,42.50
2018-05-17T12:14:39.971Z,42.30
2018-05-17T12:17:07.597Z,42.50
2018-05-17T12:19:35.229Z,42.10
2018-05-17T12:22:02.873Z,42.70
2018-05-17T12:24:30.486Z,36.50
2018-05-17T12:26:58.111Z,35.50
2018-05-17T12:29:26.489Z,35.10
2018-05-17T12:31:54.928Z,37.90
2018-05-17T12:34:22.548Z,37.90
2018-05-17T12:36:50.201Z,37.80
2018-05-17T12:39:18.611Z,36.60
2018-05-17T12:41:46.262Z,36.50
2018-05-17T12:44:13.876Z,34.30
2018-05-17T12:46:41.518Z,37.90
2018-05-17T12:49:09.164Z,34.60
2018-05-17T12:51:36.775Z,34.80
2018-05-17T12:54:05.169Z,32.80
2018-05-17T12:56:32.774Z,32.70
2018-05-17T12:59:00.480Z,37.50
2018-05-17T13:01:28.864Z,36.90
2018-05-17T13:03:57.281Z,36.30
2018-05-17T13:06:24.911Z,36.30
2018-05-17T13:08:52.519Z,38.50
2018-05-17T13:11:20.130Z,36.10
2018-05-17T13:13:47.771Z,36.00
2018-05-17T13:16:16.133Z,39.80
2018-05-17T13:18:43.747Z,39.20
2018-05-17T13:21:11.366Z,35.80
2018-05-17T13:23:39.771Z,35.50
2018-05-17T13:26:07.385Z,35.30
2018-05-17T13:28:35.008Z,34.80
2018-05-17T14:40:43.021Z,39.30
2018-05-17T14:43:11.430Z,41.20
2018-05-17T14:45:39.054Z,41.20
2018-05-17T14:48:07.440Z,41.90
2018-05-17T14:50:35.890Z,43.20
2018-05-17T14:53:03.519Z,43.20
2018-05-17T14:55:31.148Z,42.30
2018-05-17T14:57:58.777Z,42.80
2018-05-17T15:00:26.381Z,41.90
2018-05-17T15:02:54.030Z,42.60
2018-05-17T15:05:21.705Z,42.40
2018-05-17T15:07:49.350Z,41.00
2018-05-17T15:10:17.021Z,39.70
2018-05-17T15:12:44.646Z,39.30
2018-05-17T15:15:13.090Z,41.50
2018-05-17T15:17:40.721Z,41.50
2018-05-17T15:20:08.370Z,42.30
2018-05-17T15:22:36.629Z,42.40
2018-05-17T15:25:05.044Z,42.10
2018-05-17T15:27:32.686Z,42.00
2018-05-17T15:30:00.360Z,41.30
2018-05-17T15:32:27.951Z,41.40
2018-05-17T15:34:55.592Z,42.40
2018-05-17T15:37:23.210Z,42.90
2018-05-17T15:39:51.620Z,43.30
2018-05-17T15:42:19.243Z,43.30
2018-05-17T15:44:47.635Z,42.40
2018-05-17T15:47:15.999Z,42.80
2018-05-17T15:49:43.636Z,42.80
2018-05-17T15:52:11.294Z,42.70
2018-05-17T15:54:38.868Z,44.40
2018-05-17T15:57:06.483Z,45.70
2018-05-17T15:59:34.150Z,47.90
2018-05-17T16:02:01.805Z,48.80
2018-05-17T16:04:29.450Z,43.50
2018-05-17T16:06:57.062Z,40.20
2018-05-17T16:09:24.671Z,38.90
2018-05-17T16:11:52.260Z,39.70
2018-05-17T16:14:21.010Z,39.40
2018-05-17T16:16:48.621Z,39.80
2018-05-17T16:19:16.247Z,39.70
2018-05-17T16:21:43.861Z,40.80
2018-05-17T16:24:11.495Z,40.60
2018-05-17T16:26:39.131Z,42.70
2018-05-17T16:29:06.796Z,40.20
2018-05-17T16:31:34.418Z,42.20
2018-05-17T16:34:02.772Z,43.00
2018-05-17T16:36:30.425Z,43.00
2018-05-17T16:38:58.025Z,42.80
2018-05-17T16:41:26.441Z,44.90
2018-05-17T16:43:54.085Z,44.90
2018-05-17T16:46:21.714Z,44.10
2018-05-17T16:48:50.106Z,43.40
2018-05-17T16:51:18.522Z,42.80
2018-05-17T16:53:46.135Z,42.70
2018-05-17T16:56:14.539Z,44.60
2018-05-17T16:58:42.249Z,44.60
2018-05-17T17:01:10.675Z,44.70
2018-05-17T17:03:38.300Z,44.60
2018-05-17T17:06:05.954Z,44.10
2018-05-17T17:08:33.591Z,45.00
2018-05-17T17:11:01.236Z,45.20
2018-05-17T17:13:28.864Z,46.70
2018-05-17T17:15:56.493Z,49.00
2018-05-17T17:18:24.140Z,49.60
2018-05-17T17:20:51.765Z,50.30
2018-05-17T17:23:19.399Z,50.60
2018-05-17T17:25:47.785Z,51.00
2018-05-17T17:28:15.442Z,50.90
2018-05-17T17:30:43.124Z,52.00
2018-05-17T17:33:10.748Z,51.10
2018-05-17T17:35:38.351Z,52.70
2018-05-17T17:38:05.974Z,53.30
2018-05-17T17:40:40.090Z,53.30
2018-05-17T17:43:08.511Z,53.60
2018-05-17T17:45:36.178Z,53.40
2018-05-17T17:48:03.842Z,53.00
2018-05-17T17:50:31.481Z,53.70
2018-05-17T17:52:59.100Z,53.10
2018-05-17T17:55:26.775Z,53.10
2018-05-17T17:57:55.177Z,53.50
2018-05-17T18:00:22.806Z,53.40
2018-05-17T18:02:51.193Z,53.40
2018-05-17T18:05:19.694Z,52.70
2018-05-17T18:07:47.282Z,52.70
2018-05-17T18:10:14.929Z,53.10
2018-05-17T18:12:42.554Z,53.30
2018-05-17T18:15:10.964Z,54.00
2018-05-17T18:17:40.550Z,55.20
2018-05-17T18:20:08.203Z,55.20
2018-05-17T18:22:36.590Z,53.80
2018-05-17T18:25:04.234Z,53.70
2018-05-17T18:27:32.600Z,53.50
2018-05-17T18:30:00.225Z,53.50
2018-05-17T18:32:27.872Z,54.00
2018-05-17T18:34:55.532Z,54.30
2018-05-17T18:37:25.075Z,55.30
2018-05-17T18:39:53.459Z,55.60
2018-05-17T18:42:21.058Z,55.50
2018-05-17T18:44:48.761Z,56.40
2018-05-17T18:47:16.381Z,57.10
2018-05-17T18:49:44.016Z,57.30
2018-05-17T18:52:12.409Z,57.50
2018-05-17T18:54:40.797Z,57.80
2018-05-17T18:57:08.454Z,57.80
2018-05-17T18:59:36.071Z,56.90
2018-05-17T19:02:03.725Z,56.40
2018-05-17T19:04:32.930Z,56.80
2018-05-17T19:07:00.557Z,56.40
2018-05-17T19:09:28.192Z,56.50
2018-05-17T19:11:55.817Z,56.50
2018-05-17T19:14:23.453Z,59.50
2018-05-17T19:16:51.091Z,62.20
2018-05-17T19:19:18.704Z,64.10
2018-05-17T19:21:46.348Z,64.20
2018-05-17T19:24:13.964Z,64.20
2018-05-17T19:26:41.590Z,64.10
2018-05-17T19:29:09.249Z,64.90
2018-05-17T19:31:36.881Z,65.60
2018-05-17T19:34:04.563Z,65.60
2018-05-17T19:36:32.190Z,66.50
2018-05-17T19:38:59.809Z,66.50
2018-05-17T19:41:28.183Z,67.20
2018-05-17T19:43:56.566Z,67.30
2018-05-17T19:46:25.001Z,67.00
2018-05-17T19:48:52.644Z,67.00
2018-05-17T19:51:20.271Z,65.10
2018-05-17T19:53:47.871Z,64.60
2018-05-17T19:56:15.485Z,66.40
2018-05-17T19:58:43.912Z,68.90
2018-05-17T20:01:11.546Z,68.80
2018-05-17T20:03:39.161Z,69.10
2018-05-17T20:06:06.794Z,69.10
2018-05-17T20:08:34.419Z,69.00
2018-05-17T20:11:02.031Z,69.80
2018-05-17T20:13:29.633Z,70.70
2018-05-17T20:15:57.215Z,70.40
2018-05-17T20:18:24.830Z,70.80
2018-05-17T20:20:53.229Z,71.00
2018-05-17T20:23:20.879Z,70.90
2018-05-17T20:25:49.264Z,71.00
2018-05-17T20:28:16.909Z,71.00
2018-05-17T20:30:44.540Z,71.00
2018-05-17T20:33:12.139Z,70.80
2018-05-17T20:35:40.545Z,70.50
2018-05-17T20:38:08.195Z,70.50
2018-05-17T20:40:35.823Z,70.40
2018-05-17T20:43:03.445Z,70.10
2018-05-17T20:45:31.078Z,70.40
2018-05-17T20:47:58.710Z,70.50
2018-05-17T20:50:27.094Z,70.90
2018-05-17T20:52:55.472Z,70.80
2018-05-17T20:55:23.860Z,71.10
2018-05-17T20:57:51.474Z,71.00
2018-05-17T21:00:19.134Z,71.00
2018-05-17T21:02:46.740Z,70.80
2018-05-17T21:05:14.351Z,72.20
2018-05-17T21:07:41.954Z,71.70
2018-05-17T21:10:10.340Z,72.70
2018-05-17T21:12:37.968Z,72.70
2018-05-17T21:15:05.588Z,72.70
2018-05-17T21:17:33.200Z,73.20
2018-05-17T21:20:01.591Z,73.10
2018-05-17T21:22:29.950Z,72.90
2018-05-17T21:24:57.560Z,72.90
2018-05-17T21:27:25.183Z,72.60
2018-05-17T21:29:53.591Z,72.20
2018-05-17T21:32:21.225Z,72.20
2018-05-17T21:34:49.650Z,72.20
2018-05-17T21:37:17.336Z,72.20
2018-05-17T21:39:44.950Z,72.10
2018-05-17T21:42:12.560Z,73.10
2018-05-17T21:44:40.190Z,74.40
2018-05-17T21:47:07.830Z,74.90
2018-05-17T21:49:35.484Z,74.90
2018-05-17T21:52:03.110Z,75.60
2018-05-17T21:54:30.749Z,75.40
2018-05-17T21:56:58.373Z,75.00
2018-05-17T21:59:25.981Z,74.60
2018-05-17T22:01:53.622Z,74.60
2018-05-17T22:04:21.207Z,74.30
2018-05-17T22:06:48.821Z,74.20
2018-05-17T22:09:16.420Z,73.90
2018-05-17T22:11:44.030Z,75.10
2018-05-17T22:14:11.697Z,75.60
2018-05-17T22:16:39.334Z,75.30
2018-05-17T22:19:07.751Z,75.90
2018-05-17T22:21:35.371Z,75.30
2018-05-17T22:24:03.730Z,75.60
2018-05-17T22:26:31.349Z,75.60
2018-05-17T22:28:58.981Z,75.60
2018-05-17T22:31:26.569Z,76.00
2018-05-17T22:33:54.166Z,76.10
2018-05-17T22:36:21.791Z,76.00
2018-05-17T22:38:49.483Z,75.80
2018-05-17T22:41:17.050Z,74.50
2018-05-17T22:43:44.685Z,74.20
2018-05-17T22:46:12.311Z,74.10
2018-05-17T22:48:39.995Z,74.00
2018-05-17T22:51:07.685Z,74.50
2018-05-17T22:53:35.350Z,73.90
2018-05-17T22:56:03.037Z,74.00
2018-05-17T22:58:31.540Z,74.20
2018-05-17T23:00:59.186Z,74.40
2018-05-17T23:03:26.836Z,74.40
2018-05-17T23:05:55.229Z,74.40
2018-05-17T23:08:22.841Z,74.40
2018-05-17T23:10:50.488Z,74.30
2018-05-17T23:13:18.114Z,74.30
2018-05-17T23:15:45.745Z,74.40
2018-05-17T23:18:14.134Z,76.30
2018-05-17T23:20:42.522Z,77.10
2018-05-17T23:23:10.167Z,77.10
2018-05-17T23:25:38.574Z,76.50
2018-05-17T23:28:06.214Z,76.40
2018-05-17T23:30:33.879Z,76.40
2018-05-17T23:33:01.491Z,76.30
2018-05-17T23:35:29.150Z,76.20
2018-05-17T23:37:56.760Z,76.10
2018-05-17T23:40:36.364Z,75.70
2018-05-17T23:43:03.974Z,75.30
2018-05-17T23:45:31.569Z,75.00
2018-05-17T23:47:59.161Z,75.30
2018-05-17T23:50:27.540Z,76.30
2018-05-17T23:52:55.905Z,76.80
2018-05-17T23:55:23.551Z,76.80
2018-05-17T23:57:51.160Z,77.40
